sensor_id;sensor_type;location;lat;lon;timestamp;temperature;humidity
29917;DHT22;16786;49.466;11.068;2023-05-07T00:02:10;15.10;99.90
29917;DHT22;16786;49.466;11.068;2023-05-07T00:04:38;15.10;99.90
29917;DHT22;16786;49.466;11.068;2023-05-07T00:07:06;15.10;99.90
29917;DHT22;16786;49.466;11.068;2023-05-07T00:09:35;15.20;99.90
29917;DHT22;16786;49.466;11.068;2023-05-07T00:12:03;15.20;99.90
29917;DHT22;16786;49.466;11.068;2023-05-07T00:14:30;15.10;99.90
29917;DHT22;16786;49.466;11.068;2023-05-07T00:16:58;15.10;99.90
29917;DHT22;16786;49.466;11.068;2023-05-07T00:19:25;15.20;99.90
29917;DHT22;16786;49.466;11.068;2023-05-07T00:21:53;15.20;99.90
29917;DHT22;16786;49.466;11.068;2023-05-07T00:24:24;15.20;99.90
29917;DHT22;16786;49.466;11.068;2023-05-07T00:26:51;15.20;99.90
29917;DHT22;16786;49.466;11.068;2023-05-07T00:29:19;15.20;99.90
29917;DHT22;16786;49.466;11.068;2023-05-07T00:31:49;15.20;99.90
29917;DHT22;16786;49.466;11.068;2023-05-07T00:34:17;15.20;99.90
29917;DHT22;16786;49.466;11.068;2023-05-07T00:36:44;15.20;99.90
29917;DHT22;16786;49.466;11.068;2023-05-07T00:39:11;15.20;99.90
29917;DHT22;16786;49.466;11.068;2023-05-07T00:41:39;15.20;99.90
29917;DHT22;16786;49.466;11.068;2023-05-07T00:44:06;15.20;99.90
29917;DHT22;16786;49.466;11.068;2023-05-07T00:46:34;15.20;99.90
29917;DHT22;16786;49.466;11.068;2023-05-07T00:49:01;15.20;99.90
29917;DHT22;16786;49.466;11.068;2023-05-07T00:51:29;15.20;99.90
29917;DHT22;16786;49.466;11.068;2023-05-07T00:53:56;15.20;99.90
29917;DHT22;16786;49.466;11.068;2023-05-07T00:56:24;15.20;99.90
29917;DHT22;16786;49.466;11.068;2023-05-07T00:58:52;15.20;99.90
29917;DHT22;16786;49.466;11.068;2023-05-07T01:01:20;15.20;99.90
29917;DHT22;16786;49.466;11.068;2023-05-07T01:03:47;15.10;99.90
29917;DHT22;16786;49.466;11.068;2023-05-07T01:06:15;15.20;99.90
29917;DHT22;16786;49.466;11.068;2023-05-07T01:08:45;15.20;99.90
29917;DHT22;16786;49.466;11.068;2023-05-07T01:11:12;15.20;99.90
29917;DHT22;16786;49.466;11.068;2023-05-07T01:13:41;15.10;99.90
29917;DHT22;16786;49.466;11.068;2023-05-07T01:16:09;15.10;99.90
29917;DHT22;16786;49.466;11.068;2023-05-07T01:18:37;15.10;99.90
29917;DHT22;16786;49.466;11.068;2023-05-07T01:21:06;15.00;99.90
29917;DHT22;16786;49.466;11.068;2023-05-07T01:23:34;15.00;99.90
29917;DHT22;16786;49.466;11.068;2023-05-07T01:26:02;14.90;99.90
29917;DHT22;16786;49.466;11.068;2023-05-07T01:28:32;15.00;99.90
29917;DHT22;16786;49.466;11.068;2023-05-07T01:31:03;14.90;99.90
29917;DHT22;16786;49.466;11.068;2023-05-07T01:33:33;14.90;99.90
29917;DHT22;16786;49.466;11.068;2023-05-07T01:36:03;15.00;99.90
29917;DHT22;16786;49.466;11.068;2023-05-07T01:38:34;14.90;99.90
29917;DHT22;16786;49.466;11.068;2023-05-07T01:41:02;14.90;99.90
29917;DHT22;16786;49.466;11.068;2023-05-07T01:43:30;14.90;99.90
29917;DHT22;16786;49.466;11.068;2023-05-07T01:45:58;14.90;99.90
29917;DHT22;16786;49.466;11.068;2023-05-07T01:48:28;14.80;99.90
29917;DHT22;16786;49.466;11.068;2023-05-07T01:50:55;14.90;99.90
29917;DHT22;16786;49.466;11.068;2023-05-07T01:53:23;14.80;99.90
29917;DHT22;16786;49.466;11.068;2023-05-07T01:55:51;14.80;99.90
29917;DHT22;16786;49.466;11.068;2023-05-07T01:58:20;14.70;99.90
29917;DHT22;16786;49.466;11.068;2023-05-07T02:00:48;14.80;99.90
29917;DHT22;16786;49.466;11.068;2023-05-07T02:03:15;14.70;99.90
29917;DHT22;16786;49.466;11.068;2023-05-07T02:05:54;14.70;99.90
29917;DHT22;16786;49.466;11.068;2023-05-07T02:08:30;14.70;99.90
29917;DHT22;16786;49.466;11.068;2023-05-07T02:10:58;14.70;99.90
29917;DHT22;16786;49.466;11.068;2023-05-07T02:13:31;14.70;99.90
29917;DHT22;16786;49.466;11.068;2023-05-07T02:15:59;14.60;99.90
29917;DHT22;16786;49.466;11.068;2023-05-07T02:18:27;14.60;99.90
29917;DHT22;16786;49.466;11.068;2023-05-07T02:20:55;14.50;99.90
29917;DHT22;16786;49.466;11.068;2023-05-07T02:23:22;14.50;99.90
29917;DHT22;16786;49.466;11.068;2023-05-07T02:25:51;14.50;99.90
29917;DHT22;16786;49.466;11.068;2023-05-07T02:28:18;14.40;99.90
29917;DHT22;16786;49.466;11.068;2023-05-07T02:30:53;14.40;99.90
29917;DHT22;16786;49.466;11.068;2023-05-07T02:33:20;14.30;99.90
29917;DHT22;16786;49.466;11.068;2023-05-07T02:35:48;14.30;99.90
29917;DHT22;16786;49.466;11.068;2023-05-07T02:38:15;14.20;99.90
29917;DHT22;16786;49.466;11.068;2023-05-07T02:40:43;14.10;99.90
29917;DHT22;16786;49.466;11.068;2023-05-07T02:43:11;14.10;99.90
29917;DHT22;16786;49.466;11.068;2023-05-07T02:45:42;14.00;99.90
29917;DHT22;16786;49.466;11.068;2023-05-07T02:48:11;14.00;99.90
29917;DHT22;16786;49.466;11.068;2023-05-07T02:50:38;13.90;99.90
29917;DHT22;16786;49.466;11.068;2023-05-07T02:53:05;13.90;99.90
29917;DHT22;16786;49.466;11.068;2023-05-07T02:55:34;13.80;99.90
29917;DHT22;16786;49.466;11.068;2023-05-07T02:58:01;13.70;99.90
29917;DHT22;16786;49.466;11.068;2023-05-07T03:00:32;13.70;99.90
29917;DHT22;16786;49.466;11.068;2023-05-07T03:03:12;13.60;99.90
29917;DHT22;16786;49.466;11.068;2023-05-07T03:05:39;13.60;99.90
29917;DHT22;16786;49.466;11.068;2023-05-07T03:08:08;13.60;99.90
29917;DHT22;16786;49.466;11.068;2023-05-07T03:10:36;13.60;99.90
29917;DHT22;16786;49.466;11.068;2023-05-07T03:13:04;13.50;99.90
29917;DHT22;16786;49.466;11.068;2023-05-07T03:15:32;13.50;99.90
29917;DHT22;16786;49.466;11.068;2023-05-07T03:17:59;13.50;99.90
29917;DHT22;16786;49.466;11.068;2023-05-07T03:20:27;13.40;99.90
29917;DHT22;16786;49.466;11.068;2023-05-07T03:22:55;13.40;99.90
29917;DHT22;16786;49.466;11.068;2023-05-07T03:25:22;13.40;99.90
29917;DHT22;16786;49.466;11.068;2023-05-07T03:27:49;13.30;99.90
29917;DHT22;16786;49.466;11.068;2023-05-07T03:30:20;13.30;99.90
29917;DHT22;16786;49.466;11.068;2023-05-07T03:32:48;13.20;99.90
29917;DHT22;16786;49.466;11.068;2023-05-07T03:35:15;13.20;99.90
29917;DHT22;16786;49.466;11.068;2023-05-07T03:37:42;13.20;99.90
29917;DHT22;16786;49.466;11.068;2023-05-07T03:40:11;13.20;99.90
29917;DHT22;16786;49.466;11.068;2023-05-07T03:42:50;13.20;99.90
29917;DHT22;16786;49.466;11.068;2023-05-07T03:45:19;13.20;99.90
29917;DHT22;16786;49.466;11.068;2023-05-07T03:47:56;13.20;99.90
29917;DHT22;16786;49.466;11.068;2023-05-07T03:50:24;13.20;99.90
29917;DHT22;16786;49.466;11.068;2023-05-07T03:52:51;13.20;99.90
29917;DHT22;16786;49.466;11.068;2023-05-07T03:55:21;13.20;99.90
29917;DHT22;16786;49.466;11.068;2023-05-07T03:57:54;13.20;99.90
29917;DHT22;16786;49.466;11.068;2023-05-07T04:00:21;13.20;99.90
29917;DHT22;16786;49.466;11.068;2023-05-07T04:02:50;13.20;99.90
29917;DHT22;16786;49.466;11.068;2023-05-07T04:05:26;13.20;99.90
29917;DHT22;16786;49.466;11.068;2023-05-07T04:07:58;13.30;99.90
29917;DHT22;16786;49.466;11.068;2023-05-07T04:10:32;13.20;99.90
29917;DHT22;16786;49.466;11.068;2023-05-07T04:13:03;13.20;99.90
29917;DHT22;16786;49.466;11.068;2023-05-07T04:15:31;13.30;99.90
29917;DHT22;16786;49.466;11.068;2023-05-07T04:17:59;13.30;99.90
29917;DHT22;16786;49.466;11.068;2023-05-07T04:20:27;13.40;99.90
29917;DHT22;16786;49.466;11.068;2023-05-07T04:23:00;13.40;99.90
29917;DHT22;16786;49.466;11.068;2023-05-07T04:25:28;13.40;99.90
29917;DHT22;16786;49.466;11.068;2023-05-07T04:28:02;13.40;99.90
29917;DHT22;16786;49.466;11.068;2023-05-07T04:30:31;13.50;99.90
29917;DHT22;16786;49.466;11.068;2023-05-07T04:32:59;13.60;99.90
29917;DHT22;16786;49.466;11.068;2023-05-07T04:35:29;13.60;99.90
29917;DHT22;16786;49.466;11.068;2023-05-07T04:37:57;13.70;99.90
29917;DHT22;16786;49.466;11.068;2023-05-07T04:40:25;13.70;99.90
29917;DHT22;16786;49.466;11.068;2023-05-07T04:42:55;13.80;99.90
29917;DHT22;16786;49.466;11.068;2023-05-07T04:45:22;14.00;99.90
29917;DHT22;16786;49.466;11.068;2023-05-07T04:47:52;14.00;99.90
29917;DHT22;16786;49.466;11.068;2023-05-07T04:50:19;14.00;99.90
29917;DHT22;16786;49.466;11.068;2023-05-07T04:52:48;14.20;99.90
29917;DHT22;16786;49.466;11.068;2023-05-07T04:55:16;14.30;99.90
29917;DHT22;16786;49.466;11.068;2023-05-07T04:57:43;14.40;99.90
29917;DHT22;16786;49.466;11.068;2023-05-07T05:00:13;14.50;99.90
29917;DHT22;16786;49.466;11.068;2023-05-07T05:02:44;14.50;99.90
29917;DHT22;16786;49.466;11.068;2023-05-07T05:05:16;14.70;99.90
29917;DHT22;16786;49.466;11.068;2023-05-07T05:07:44;14.70;99.90
29917;DHT22;16786;49.466;11.068;2023-05-07T05:10:11;14.80;99.90
29917;DHT22;16786;49.466;11.068;2023-05-07T05:12:40;14.90;99.90
29917;DHT22;16786;49.466;11.068;2023-05-07T05:15:11;15.10;99.90
29917;DHT22;16786;49.466;11.068;2023-05-07T05:17:39;15.10;99.90
29917;DHT22;16786;49.466;11.068;2023-05-07T05:20:07;15.30;99.90
29917;DHT22;16786;49.466;11.068;2023-05-07T05:22:38;15.40;99.90
29917;DHT22;16786;49.466;11.068;2023-05-07T05:25:06;15.50;99.90
29917;DHT22;16786;49.466;11.068;2023-05-07T05:27:34;15.60;99.90
29917;DHT22;16786;49.466;11.068;2023-05-07T05:30:03;15.60;99.90
29917;DHT22;16786;49.466;11.068;2023-05-07T05:32:31;15.70;99.90
29917;DHT22;16786;49.466;11.068;2023-05-07T05:35:01;15.80;99.90
29917;DHT22;16786;49.466;11.068;2023-05-07T05:37:29;15.70;99.90
29917;DHT22;16786;49.466;11.068;2023-05-07T05:40:00;15.70;99.90
29917;DHT22;16786;49.466;11.068;2023-05-07T05:42:29;15.70;99.90
29917;DHT22;16786;49.466;11.068;2023-05-07T05:44:57;15.70;99.90
29917;DHT22;16786;49.466;11.068;2023-05-07T05:47:24;15.60;99.90
29917;DHT22;16786;49.466;11.068;2023-05-07T05:49:54;15.70;99.90
29917;DHT22;16786;49.466;11.068;2023-05-07T05:52:22;15.80;99.90
29917;DHT22;16786;49.466;11.068;2023-05-07T05:54:51;15.90;99.90
29917;DHT22;16786;49.466;11.068;2023-05-07T05:57:19;16.00;99.90
29917;DHT22;16786;49.466;11.068;2023-05-07T05:59:46;16.00;99.90
29917;DHT22;16786;49.466;11.068;2023-05-07T06:02:14;16.10;99.90
29917;DHT22;16786;49.466;11.068;2023-05-07T06:04:42;16.10;99.90
29917;DHT22;16786;49.466;11.068;2023-05-07T06:07:14;16.10;99.90
29917;DHT22;16786;49.466;11.068;2023-05-07T06:09:42;16.20;99.90
29917;DHT22;16786;49.466;11.068;2023-05-07T06:12:09;16.20;99.90
29917;DHT22;16786;49.466;11.068;2023-05-07T06:14:37;16.40;99.90
29917;DHT22;16786;49.466;11.068;2023-05-07T06:17:04;16.50;99.90
29917;DHT22;16786;49.466;11.068;2023-05-07T06:19:32;16.70;99.90
29917;DHT22;16786;49.466;11.068;2023-05-07T06:22:00;16.80;99.90
29917;DHT22;16786;49.466;11.068;2023-05-07T06:24:30;16.80;99.90
29917;DHT22;16786;49.466;11.068;2023-05-07T06:26:58;16.80;99.90
29917;DHT22;16786;49.466;11.068;2023-05-07T06:29:27;16.90;99.90
29917;DHT22;16786;49.466;11.068;2023-05-07T06:31:54;17.10;99.90
29917;DHT22;16786;49.466;11.068;2023-05-07T06:34:23;17.30;99.90
29917;DHT22;16786;49.466;11.068;2023-05-07T06:36:50;17.50;99.90
29917;DHT22;16786;49.466;11.068;2023-05-07T06:39:32;17.60;99.90
29917;DHT22;16786;49.466;11.068;2023-05-07T06:42:01;17.80;99.90
29917;DHT22;16786;49.466;11.068;2023-05-07T06:44:31;17.80;99.90
29917;DHT22;16786;49.466;11.068;2023-05-07T06:47:07;17.80;99.90
29917;DHT22;16786;49.466;11.068;2023-05-07T06:49:37;17.60;99.90
29917;DHT22;16786;49.466;11.068;2023-05-07T06:52:05;17.80;99.90
29917;DHT22;16786;49.466;11.068;2023-05-07T06:54:33;18.00;99.90
29917;DHT22;16786;49.466;11.068;2023-05-07T06:57:00;18.10;99.90
29917;DHT22;16786;49.466;11.068;2023-05-07T06:59:29;18.20;99.90
29917;DHT22;16786;49.466;11.068;2023-05-07T07:01:56;18.40;99.90
29917;DHT22;16786;49.466;11.068;2023-05-07T07:04:24;18.40;99.90
29917;DHT22;16786;49.466;11.068;2023-05-07T07:07:00;18.60;99.90
29917;DHT22;16786;49.466;11.068;2023-05-07T07:09:28;18.70;99.90
29917;DHT22;16786;49.466;11.068;2023-05-07T07:11:56;18.60;99.90
29917;DHT22;16786;49.466;11.068;2023-05-07T07:14:24;18.70;99.90
29917;DHT22;16786;49.466;11.068;2023-05-07T07:16:53;18.90;99.90
29917;DHT22;16786;49.466;11.068;2023-05-07T07:19:22;19.00;99.90
29917;DHT22;16786;49.466;11.068;2023-05-07T07:21:52;18.90;99.90
29917;DHT22;16786;49.466;11.068;2023-05-07T07:24:19;19.00;99.90
29917;DHT22;16786;49.466;11.068;2023-05-07T07:26:52;18.80;99.90
29917;DHT22;16786;49.466;11.068;2023-05-07T07:29:21;19.20;99.90
29917;DHT22;16786;49.466;11.068;2023-05-07T07:31:49;19.60;99.90
29917;DHT22;16786;49.466;11.068;2023-05-07T07:34:20;20.00;99.90
29917;DHT22;16786;49.466;11.068;2023-05-07T07:36:48;19.90;99.90
29917;DHT22;16786;49.466;11.068;2023-05-07T07:39:17;20.20;99.90
29917;DHT22;16786;49.466;11.068;2023-05-07T07:41:47;20.20;99.90
29917;DHT22;16786;49.466;11.068;2023-05-07T07:44:15;20.30;99.90
29917;DHT22;16786;49.466;11.068;2023-05-07T07:46:47;20.20;99.90
29917;DHT22;16786;49.466;11.068;2023-05-07T07:49:15;20.30;99.90
29917;DHT22;16786;49.466;11.068;2023-05-07T07:51:43;20.40;99.90
29917;DHT22;16786;49.466;11.068;2023-05-07T07:54:12;20.30;99.90
29917;DHT22;16786;49.466;11.068;2023-05-07T07:56:40;20.60;99.90
29917;DHT22;16786;49.466;11.068;2023-05-07T07:59:09;20.80;99.90
29917;DHT22;16786;49.466;11.068;2023-05-07T08:01:39;20.80;99.90
29917;DHT22;16786;49.466;11.068;2023-05-07T08:04:07;20.80;99.90
29917;DHT22;16786;49.466;11.068;2023-05-07T08:06:38;20.90;99.90
29917;DHT22;16786;49.466;11.068;2023-05-07T08:09:08;21.10;99.90
29917;DHT22;16786;49.466;11.068;2023-05-07T08:11:38;21.20;99.90
29917;DHT22;16786;49.466;11.068;2023-05-07T08:14:06;21.10;99.90
29917;DHT22;16786;49.466;11.068;2023-05-07T08:16:33;21.20;99.90
29917;DHT22;16786;49.466;11.068;2023-05-07T08:19:01;21.20;99.90
29917;DHT22;16786;49.466;11.068;2023-05-07T08:21:29;21.40;99.90
29917;DHT22;16786;49.466;11.068;2023-05-07T08:24:00;21.30;99.90
29917;DHT22;16786;49.466;11.068;2023-05-07T08:26:28;21.30;99.90
29917;DHT22;16786;49.466;11.068;2023-05-07T08:28:55;21.40;99.90
29917;DHT22;16786;49.466;11.068;2023-05-07T08:31:23;21.30;99.90
29917;DHT22;16786;49.466;11.068;2023-05-07T08:33:51;21.50;99.90
29917;DHT22;16786;49.466;11.068;2023-05-07T08:36:18;21.60;99.90
29917;DHT22;16786;49.466;11.068;2023-05-07T08:38:46;21.80;99.90
29917;DHT22;16786;49.466;11.068;2023-05-07T08:41:15;21.60;99.90
29917;DHT22;16786;49.466;11.068;2023-05-07T08:43:48;21.50;99.90
29917;DHT22;16786;49.466;11.068;2023-05-07T08:46:21;21.60;99.90
29917;DHT22;16786;49.466;11.068;2023-05-07T08:48:53;21.90;99.90
29917;DHT22;16786;49.466;11.068;2023-05-07T08:51:21;21.60;99.90
29917;DHT22;16786;49.466;11.068;2023-05-07T08:53:50;21.70;99.90
29917;DHT22;16786;49.466;11.068;2023-05-07T08:56:28;21.90;99.90
29917;DHT22;16786;49.466;11.068;2023-05-07T08:58:56;22.00;99.90
29917;DHT22;16786;49.466;11.068;2023-05-07T09:01:27;22.30;99.90
29917;DHT22;16786;49.466;11.068;2023-05-07T09:03:57;22.40;99.90
29917;DHT22;16786;49.466;11.068;2023-05-07T09:06:26;22.50;99.90
29917;DHT22;16786;49.466;11.068;2023-05-07T09:08:54;22.60;99.90
29917;DHT22;16786;49.466;11.068;2023-05-07T09:11:27;22.90;99.90
29917;DHT22;16786;49.466;11.068;2023-05-07T09:13:58;22.60;99.90
29917;DHT22;16786;49.466;11.068;2023-05-07T09:16:32;22.70;99.90
29917;DHT22;16786;49.466;11.068;2023-05-07T09:19:00;22.90;99.90
29917;DHT22;16786;49.466;11.068;2023-05-07T09:21:28;22.70;99.90
29917;DHT22;16786;49.466;11.068;2023-05-07T09:23:58;22.60;99.90
29917;DHT22;16786;49.466;11.068;2023-05-07T09:26:34;22.70;99.90
29917;DHT22;16786;49.466;11.068;2023-05-07T09:29:03;22.80;99.90
29917;DHT22;16786;49.466;11.068;2023-05-07T09:31:31;22.90;99.90
29917;DHT22;16786;49.466;11.068;2023-05-07T09:33:58;22.80;99.90
29917;DHT22;16786;49.466;11.068;2023-05-07T09:36:28;22.70;99.90
29917;DHT22;16786;49.466;11.068;2023-05-07T09:38:59;22.70;99.90
29917;DHT22;16786;49.466;11.068;2023-05-07T09:41:30;22.80;99.90
29917;DHT22;16786;49.466;11.068;2023-05-07T09:44:09;22.90;99.90
29917;DHT22;16786;49.466;11.068;2023-05-07T09:46:43;23.00;99.90
29917;DHT22;16786;49.466;11.068;2023-05-07T09:49:22;23.10;99.90
29917;DHT22;16786;49.466;11.068;2023-05-07T09:51:54;23.20;99.90
29917;DHT22;16786;49.466;11.068;2023-05-07T09:54:25;23.30;99.90
29917;DHT22;16786;49.466;11.068;2023-05-07T09:56:55;23.30;99.90
29917;DHT22;16786;49.466;11.068;2023-05-07T09:59:27;23.40;99.90
29917;DHT22;16786;49.466;11.068;2023-05-07T10:01:58;23.60;99.90
29917;DHT22;16786;49.466;11.068;2023-05-07T10:04:31;23.60;99.90
29917;DHT22;16786;49.466;11.068;2023-05-07T10:06:59;23.80;99.90
29917;DHT22;16786;49.466;11.068;2023-05-07T10:09:29;24.10;99.90
29917;DHT22;16786;49.466;11.068;2023-05-07T10:11:57;24.40;99.90
29917;DHT22;16786;49.466;11.068;2023-05-07T10:14:27;24.80;99.90
29917;DHT22;16786;49.466;11.068;2023-05-07T10:16:55;24.80;99.90
29917;DHT22;16786;49.466;11.068;2023-05-07T10:19:25;24.90;99.90
29917;DHT22;16786;49.466;11.068;2023-05-07T10:22:05;25.20;99.90
29917;DHT22;16786;49.466;11.068;2023-05-07T10:24:37;25.40;99.90
29917;DHT22;16786;49.466;11.068;2023-05-07T10:27:12;25.60;99.90
29917;DHT22;16786;49.466;11.068;2023-05-07T10:29:58;25.70;99.90
29917;DHT22;16786;49.466;11.068;2023-05-07T10:32:46;25.80;99.90
29917;DHT22;16786;49.466;11.068;2023-05-07T10:35:26;26.10;99.90
29917;DHT22;16786;49.466;11.068;2023-05-07T10:37:58;26.50;99.90
29917;DHT22;16786;49.466;11.068;2023-05-07T10:40:28;26.40;99.90
29917;DHT22;16786;49.466;11.068;2023-05-07T10:42:59;26.30;99.90
29917;DHT22;16786;49.466;11.068;2023-05-07T10:45:31;26.30;99.90
29917;DHT22;16786;49.466;11.068;2023-05-07T10:48:15;26.50;99.90
29917;DHT22;16786;49.466;11.068;2023-05-07T10:51:21;26.20;99.90
29917;DHT22;16786;49.466;11.068;2023-05-07T10:56:47;27.30;99.90
29917;DHT22;16786;49.466;11.068;2023-05-07T11:01:54;28.40;99.90
29917;DHT22;16786;49.466;11.068;2023-05-07T11:05:20;28.90;99.90
29917;DHT22;16786;49.466;11.068;2023-05-07T11:08:09;29.10;99.90
29917;DHT22;16786;49.466;11.068;2023-05-07T11:10:56;29.10;99.90
29917;DHT22;16786;49.466;11.068;2023-05-07T11:13:54;29.40;99.40
29917;DHT22;16786;49.466;11.068;2023-05-07T11:16:36;29.40;98.80
29917;DHT22;16786;49.466;11.068;2023-05-07T11:19:48;29.40;97.60
29917;DHT22;16786;49.466;11.068;2023-05-07T11:22:39;29.20;97.40
29917;DHT22;16786;49.466;11.068;2023-05-07T11:25:25;29.60;97.20
29917;DHT22;16786;49.466;11.068;2023-05-07T11:28:05;29.80;96.10
29917;DHT22;16786;49.466;11.068;2023-05-07T11:30:34;29.50;95.30
29917;DHT22;16786;49.466;11.068;2023-05-07T11:33:04;29.30;96.30
29917;DHT22;16786;49.466;11.068;2023-05-07T11:35:33;29.70;95.60
29917;DHT22;16786;49.466;11.068;2023-05-07T11:38:05;30.10;94.90
29917;DHT22;16786;49.466;11.068;2023-05-07T11:40:34;30.80;93.60
29917;DHT22;16786;49.466;11.068;2023-05-07T11:43:11;31.30;92.90
29917;DHT22;16786;49.466;11.068;2023-05-07T11:45:38;31.40;91.70
29917;DHT22;16786;49.466;11.068;2023-05-07T11:48:05;31.80;90.40
29917;DHT22;16786;49.466;11.068;2023-05-07T11:50:33;31.90;88.80
29917;DHT22;16786;49.466;11.068;2023-05-07T11:53:00;31.90;87.00
29917;DHT22;16786;49.466;11.068;2023-05-07T11:55:27;31.40;86.50
29917;DHT22;16786;49.466;11.068;2023-05-07T11:57:55;31.20;86.20
29917;DHT22;16786;49.466;11.068;2023-05-07T12:00:23;31.10;85.80
29917;DHT22;16786;49.466;11.068;2023-05-07T12:02:50;31.80;85.60
29917;DHT22;16786;49.466;11.068;2023-05-07T12:05:17;32.00;84.40
29917;DHT22;16786;49.466;11.068;2023-05-07T12:07:45;31.80;82.10
29917;DHT22;16786;49.466;11.068;2023-05-07T12:10:13;31.20;81.70
29917;DHT22;16786;49.466;11.068;2023-05-07T12:12:41;30.10;83.00
29917;DHT22;16786;49.466;11.068;2023-05-07T12:15:15;29.70;85.10
29917;DHT22;16786;49.466;11.068;2023-05-07T12:17:44;29.50;85.50
29917;DHT22;16786;49.466;11.068;2023-05-07T12:20:12;29.20;86.40
29917;DHT22;16786;49.466;11.068;2023-05-07T12:22:40;29.20;87.40
29917;DHT22;16786;49.466;11.068;2023-05-07T12:25:10;29.10;88.00
29917;DHT22;16786;49.466;11.068;2023-05-07T12:27:40;28.80;88.60
29917;DHT22;16786;49.466;11.068;2023-05-07T12:30:10;28.70;89.60
29917;DHT22;16786;49.466;11.068;2023-05-07T12:32:37;29.20;88.80
29917;DHT22;16786;49.466;11.068;2023-05-07T12:35:06;29.50;87.90
29917;DHT22;16786;49.466;11.068;2023-05-07T12:37:35;29.00;88.60
29917;DHT22;16786;49.466;11.068;2023-05-07T12:40:08;28.20;89.50
29917;DHT22;16786;49.466;11.068;2023-05-07T12:42:37;27.90;90.50
29917;DHT22;16786;49.466;11.068;2023-05-07T12:45:12;27.40;90.80
29917;DHT22;16786;49.466;11.068;2023-05-07T12:47:47;27.20;91.20
29917;DHT22;16786;49.466;11.068;2023-05-07T12:50:15;27.00;91.60
29917;DHT22;16786;49.466;11.068;2023-05-07T12:52:47;26.80;91.60
29917;DHT22;16786;49.466;11.068;2023-05-07T12:55:16;26.70;92.00
29917;DHT22;16786;49.466;11.068;2023-05-07T12:57:48;26.90;91.90
29917;DHT22;16786;49.466;11.068;2023-05-07T13:00:16;26.90;92.30
29917;DHT22;16786;49.466;11.068;2023-05-07T13:02:44;26.70;91.90
29917;DHT22;16786;49.466;11.068;2023-05-07T13:05:12;26.90;91.80
29917;DHT22;16786;49.466;11.068;2023-05-07T13:07:52;27.00;91.80
29917;DHT22;16786;49.466;11.068;2023-05-07T13:10:21;27.00;91.50
29917;DHT22;16786;49.466;11.068;2023-05-07T13:12:48;27.00;91.90
29917;DHT22;16786;49.466;11.068;2023-05-07T13:15:16;27.10;91.90
29917;DHT22;16786;49.466;11.068;2023-05-07T13:17:43;27.10;91.30
29917;DHT22;16786;49.466;11.068;2023-05-07T13:20:13;27.20;91.30
29917;DHT22;16786;49.466;11.068;2023-05-07T13:22:44;27.30;91.30
29917;DHT22;16786;49.466;11.068;2023-05-07T13:25:12;27.00;91.30
29917;DHT22;16786;49.466;11.068;2023-05-07T13:27:43;27.50;91.00
29917;DHT22;16786;49.466;11.068;2023-05-07T13:30:12;27.70;90.80
29917;DHT22;16786;49.466;11.068;2023-05-07T13:32:39;28.00;90.50
29917;DHT22;16786;49.466;11.068;2023-05-07T13:35:07;28.20;90.30
29917;DHT22;16786;49.466;11.068;2023-05-07T13:37:35;28.60;90.20
29917;DHT22;16786;49.466;11.068;2023-05-07T13:40:03;28.80;88.80
29917;DHT22;16786;49.466;11.068;2023-05-07T13:42:30;28.70;88.80
29917;DHT22;16786;49.466;11.068;2023-05-07T13:44:58;29.60;88.60
29917;DHT22;16786;49.466;11.068;2023-05-07T13:47:25;31.00;86.30
29917;DHT22;16786;49.466;11.068;2023-05-07T13:49:53;31.90;82.80
29917;DHT22;16786;49.466;11.068;2023-05-07T13:52:21;32.20;81.60
29917;DHT22;16786;49.466;11.068;2023-05-07T13:54:48;32.10;81.00
29917;DHT22;16786;49.466;11.068;2023-05-07T13:57:16;31.60;80.90
29917;DHT22;16786;49.466;11.068;2023-05-07T13:59:43;31.90;81.10
29917;DHT22;16786;49.466;11.068;2023-05-07T14:02:11;33.70;78.60
29917;DHT22;16786;49.466;11.068;2023-05-07T14:04:39;34.70;74.80
29917;DHT22;16786;49.466;11.068;2023-05-07T14:07:06;35.60;72.10
29917;DHT22;16786;49.466;11.068;2023-05-07T14:09:33;37.30;68.60
29917;DHT22;16786;49.466;11.068;2023-05-07T14:12:01;38.70;64.90
29917;DHT22;16786;49.466;11.068;2023-05-07T14:14:29;39.10;62.70
29917;DHT22;16786;49.466;11.068;2023-05-07T14:16:56;40.10;60.20
29917;DHT22;16786;49.466;11.068;2023-05-07T14:19:24;40.90;57.40
29917;DHT22;16786;49.466;11.068;2023-05-07T14:21:52;40.70;56.60
29917;DHT22;16786;49.466;11.068;2023-05-07T14:24:19;40.50;55.30
29917;DHT22;16786;49.466;11.068;2023-05-07T14:27:03;39.70;55.80
29917;DHT22;16786;49.466;11.068;2023-05-07T14:29:31;39.80;55.70
29917;DHT22;16786;49.466;11.068;2023-05-07T14:31:58;39.40;55.50
29917;DHT22;16786;49.466;11.068;2023-05-07T14:34:26;40.10;54.50
29917;DHT22;16786;49.466;11.068;2023-05-07T14:36:54;39.20;54.00
29917;DHT22;16786;49.466;11.068;2023-05-07T14:39:22;37.60;55.60
29917;DHT22;16786;49.466;11.068;2023-05-07T14:41:49;36.50;56.80
29917;DHT22;16786;49.466;11.068;2023-05-07T14:44:17;34.60;58.60
29917;DHT22;16786;49.466;11.068;2023-05-07T14:46:45;33.20;60.90
29917;DHT22;16786;49.466;11.068;2023-05-07T14:49:14;32.30;62.20
29917;DHT22;16786;49.466;11.068;2023-05-07T14:51:44;31.40;63.40
29917;DHT22;16786;49.466;11.068;2023-05-07T14:54:13;30.90;65.00
29917;DHT22;16786;49.466;11.068;2023-05-07T14:56:41;30.00;66.60
29917;DHT22;16786;49.466;11.068;2023-05-07T14:59:09;29.90;66.90
29917;DHT22;16786;49.466;11.068;2023-05-07T15:01:45;29.20;68.30
29917;DHT22;16786;49.466;11.068;2023-05-07T15:04:14;28.60;69.50
29917;DHT22;16786;49.466;11.068;2023-05-07T15:06:43;28.10;70.50
29917;DHT22;16786;49.466;11.068;2023-05-07T15:09:11;27.50;72.10
29917;DHT22;16786;49.466;11.068;2023-05-07T15:11:42;27.20;73.40
29917;DHT22;16786;49.466;11.068;2023-05-07T15:14:11;27.00;73.80
29917;DHT22;16786;49.466;11.068;2023-05-07T15:16:41;26.90;74.60
29917;DHT22;16786;49.466;11.068;2023-05-07T15:19:10;26.70;75.10
29917;DHT22;16786;49.466;11.068;2023-05-07T15:21:38;26.20;76.30
29917;DHT22;16786;49.466;11.068;2023-05-07T15:24:09;26.30;76.70
29917;DHT22;16786;49.466;11.068;2023-05-07T15:26:39;26.30;77.40
29917;DHT22;16786;49.466;11.068;2023-05-07T15:29:15;26.20;77.80
29917;DHT22;16786;49.466;11.068;2023-05-07T15:31:47;26.10;78.00
29917;DHT22;16786;49.466;11.068;2023-05-07T15:34:18;26.10;78.10
29917;DHT22;16786;49.466;11.068;2023-05-07T15:36:46;26.30;78.10
29917;DHT22;16786;49.466;11.068;2023-05-07T15:39:18;26.10;78.20